sensor_id;sensor_type;location;lat;lon;timestamp;P1;durP1;ratioP1;P2;durP2;ratioP2
17151;SDS011;8691;50.828;4.700;2022-08-07T00:01:36;2.47;;;2.20;;
17151;SDS011;8691;50.828;4.700;2022-08-07T00:04:03;2.57;;;1.97;;
17151;SDS011;8691;50.828;4.700;2022-08-07T00:06:30;3.03;;;1.90;;
17151;SDS011;8691;50.828;4.700;2022-08-07T00:08:57;3.45;;;2.30;;
17151;SDS011;8691;50.828;4.700;2022-08-07T00:11:24;2.10;;;1.90;;
17151;SDS011;8691;50.828;4.700;2022-08-07T00:13:51;2.63;;;2.10;;
17151;SDS011;8691;50.828;4.700;2022-08-07T00:16:18;2.62;;;2.08;;
17151;SDS011;8691;50.828;4.700;2022-08-07T00:18:45;2.90;;;2.10;;
17151;SDS011;8691;50.828;4.700;2022-08-07T00:21:13;3.22;;;2.10;;
17151;SDS011;8691;50.828;4.700;2022-08-07T00:23:40;1.97;;;1.87;;
17151;SDS011;8691;50.828;4.700;2022-08-07T00:26:09;3.67;;;2.20;;
17151;SDS011;8691;50.828;4.700;2022-08-07T00:28:36;3.10;;;1.95;;
17151;SDS011;8691;50.828;4.700;2022-08-07T00:31:08;3.00;;;2.23;;
17151;SDS011;8691;50.828;4.700;2022-08-07T00:33:30;2.28;;;2.03;;
17151;SDS011;8691;50.828;4.700;2022-08-07T00:35:57;3.05;;;2.25;;
17151;SDS011;8691;50.828;4.700;2022-08-07T00:38:24;2.80;;;2.10;;
17151;SDS011;8691;50.828;4.700;2022-08-07T00:40:51;3.80;;;2.08;;
17151;SDS011;8691;50.828;4.700;2022-08-07T00:43:18;3.20;;;2.37;;
17151;SDS011;8691;50.828;4.700;2022-08-07T00:45:45;3.10;;;2.40;;
17151;SDS011;8691;50.828;4.700;2022-08-07T00:48:13;2.90;;;2.20;;
17151;SDS011;8691;50.828;4.700;2022-08-07T00:50:41;2.97;;;2.30;;
17151;SDS011;8691;50.828;4.700;2022-08-07T00:53:07;2.55;;;1.90;;
17151;SDS011;8691;50.828;4.700;2022-08-07T00:55:34;2.30;;;2.08;;
17151;SDS011;8691;50.828;4.700;2022-08-07T00:58:02;3.03;;;2.40;;
17151;SDS011;8691;50.828;4.700;2022-08-07T01:00:28;2.43;;;2.20;;
17151;SDS011;8691;50.828;4.700;2022-08-07T01:02:55;3.72;;;2.20;;
17151;SDS011;8691;50.828;4.700;2022-08-07T01:05:22;2.70;;;2.43;;
17151;SDS011;8691;50.828;4.700;2022-08-07T01:07:49;3.03;;;2.47;;
17151;SDS011;8691;50.828;4.700;2022-08-07T01:10:16;3.23;;;2.20;;
17151;SDS011;8691;50.828;4.700;2022-08-07T01:12:43;3.60;;;2.22;;
17151;SDS011;8691;50.828;4.700;2022-08-07T01:15:10;2.45;;;2.25;;
17151;SDS011;8691;50.828;4.700;2022-08-07T01:17:37;2.37;;;2.10;;
17151;SDS011;8691;50.828;4.700;2022-08-07T01:20:08;2.75;;;2.20;;
17151;SDS011;8691;50.828;4.700;2022-08-07T01:22:31;2.92;;;1.90;;
17151;SDS011;8691;50.828;4.700;2022-08-07T01:24:57;2.33;;;2.10;;
17151;SDS011;8691;50.828;4.700;2022-08-07T01:27:26;2.80;;;2.10;;
17151;SDS011;8691;50.828;4.700;2022-08-07T01:29:53;2.50;;;2.30;;
17151;SDS011;8691;50.828;4.700;2022-08-07T01:32:20;3.33;;;2.20;;
17151;SDS011;8691;50.828;4.700;2022-08-07T01:34:47;3.97;;;2.30;;
17151;SDS011;8691;50.828;4.700;2022-08-07T01:37:14;2.45;;;2.12;;
17151;SDS011;8691;50.828;4.700;2022-08-07T01:39:40;3.67;;;2.62;;
17151;SDS011;8691;50.828;4.700;2022-08-07T01:42:07;2.55;;;2.12;;
17151;SDS011;8691;50.828;4.700;2022-08-07T01:44:35;2.50;;;2.30;;
17151;SDS011;8691;50.828;4.700;2022-08-07T01:47:02;3.00;;;2.13;;
17151;SDS011;8691;50.828;4.700;2022-08-07T01:49:28;3.20;;;2.20;;
17151;SDS011;8691;50.828;4.700;2022-08-07T01:51:55;2.58;;;2.30;;
17151;SDS011;8691;50.828;4.700;2022-08-07T01:54:22;2.80;;;2.50;;
17151;SDS011;8691;50.828;4.700;2022-08-07T01:59:35;2.43;;;1.93;;
17151;SDS011;8691;50.828;4.700;2022-08-07T02:02:00;2.37;;;2.17;;
17151;SDS011;8691;50.828;4.700;2022-08-07T02:04:25;2.63;;;2.40;;
17151;SDS011;8691;50.828;4.700;2022-08-07T02:06:51;3.15;;;2.30;;
17151;SDS011;8691;50.828;4.700;2022-08-07T02:09:17;3.10;;;2.57;;
17151;SDS011;8691;50.828;4.700;2022-08-07T02:11:45;3.80;;;2.50;;
17151;SDS011;8691;50.828;4.700;2022-08-07T02:14:11;3.80;;;2.75;;
17151;SDS011;8691;50.828;4.700;2022-08-07T02:16:38;4.53;;;2.77;;
17151;SDS011;8691;50.828;4.700;2022-08-07T02:19:07;4.57;;;3.03;;
17151;SDS011;8691;50.828;4.700;2022-08-07T02:21:34;3.30;;;2.75;;
17151;SDS011;8691;50.828;4.700;2022-08-07T02:24:01;4.47;;;2.72;;
17151;SDS011;8691;50.828;4.700;2022-08-07T02:26:27;3.22;;;2.78;;
17151;SDS011;8691;50.828;4.700;2022-08-07T02:28:54;3.08;;;2.65;;
17151;SDS011;8691;50.828;4.700;2022-08-07T02:31:21;3.83;;;2.77;;
17151;SDS011;8691;50.828;4.700;2022-08-07T02:33:48;3.60;;;2.60;;
17151;SDS011;8691;50.828;4.700;2022-08-07T02:36:15;2.45;;;2.25;;
17151;SDS011;8691;50.828;4.700;2022-08-07T02:38:41;3.80;;;2.60;;
17151;SDS011;8691;50.828;4.700;2022-08-07T02:41:08;3.45;;;2.55;;
17151;SDS011;8691;50.828;4.700;2022-08-07T02:43:35;5.40;;;2.53;;
17151;SDS011;8691;50.828;4.700;2022-08-07T02:46:02;3.05;;;2.72;;
17151;SDS011;8691;50.828;4.700;2022-08-07T02:48:29;3.60;;;2.70;;
17151;SDS011;8691;50.828;4.700;2022-08-07T02:50:57;2.78;;;2.47;;
17151;SDS011;8691;50.828;4.700;2022-08-07T02:53:25;2.70;;;2.50;;
17151;SDS011;8691;50.828;4.700;2022-08-07T02:55:51;3.28;;;2.53;;
17151;SDS011;8691;50.828;4.700;2022-08-07T02:58:20;3.20;;;2.50;;
17151;SDS011;8691;50.828;4.700;2022-08-07T03:00:46;3.00;;;2.70;;
17151;SDS011;8691;50.828;4.700;2022-08-07T03:03:13;2.70;;;2.50;;
17151;SDS011;8691;50.828;4.700;2022-08-07T03:05:39;2.75;;;2.45;;
17151;SDS011;8691;50.828;4.700;2022-08-07T03:08:06;3.58;;;2.55;;
17151;SDS011;8691;50.828;4.700;2022-08-07T03:10:32;2.90;;;2.60;;
17151;SDS011;8691;50.828;4.700;2022-08-07T03:13:00;2.95;;;2.53;;
17151;SDS011;8691;50.828;4.700;2022-08-07T03:15:27;3.30;;;2.60;;
17151;SDS011;8691;50.828;4.700;2022-08-07T03:17:55;3.05;;;2.50;;
17151;SDS011;8691;50.828;4.700;2022-08-07T03:20:22;2.90;;;2.60;;
17151;SDS011;8691;50.828;4.700;2022-08-07T03:22:49;3.00;;;2.70;;
17151;SDS011;8691;50.828;4.700;2022-08-07T03:25:16;3.78;;;2.60;;
17151;SDS011;8691;50.828;4.700;2022-08-07T03:27:44;3.33;;;2.45;;
17151;SDS011;8691;50.828;4.700;2022-08-07T03:30:10;3.47;;;2.72;;
17151;SDS011;8691;50.828;4.700;2022-08-07T03:32:38;3.00;;;2.70;;
17151;SDS011;8691;50.828;4.700;2022-08-07T03:35:05;3.30;;;2.23;;
17151;SDS011;8691;50.828;4.700;2022-08-07T03:37:31;3.42;;;2.47;;
17151;SDS011;8691;50.828;4.700;2022-08-07T03:39:57;3.10;;;2.58;;
17151;SDS011;8691;50.828;4.700;2022-08-07T03:42:24;2.63;;;2.43;;
17151;SDS011;8691;50.828;4.700;2022-08-07T03:44:51;2.90;;;2.60;;
17151;SDS011;8691;50.828;4.700;2022-08-07T03:47:18;2.73;;;2.50;;
17151;SDS011;8691;50.828;4.700;2022-08-07T03:49:45;3.40;;;2.60;;
17151;SDS011;8691;50.828;4.700;2022-08-07T03:52:12;2.90;;;2.60;;
17151;SDS011;8691;50.828;4.700;2022-08-07T03:54:38;2.77;;;2.40;;
17151;SDS011;8691;50.828;4.700;2022-08-07T03:57:05;3.40;;;3.10;;
17151;SDS011;8691;50.828;4.700;2022-08-07T03:59:32;3.30;;;2.83;;
17151;SDS011;8691;50.828;4.700;2022-08-07T04:02:01;3.03;;;2.75;;
17151;SDS011;8691;50.828;4.700;2022-08-07T04:04:27;3.53;;;3.00;;
17151;SDS011;8691;50.828;4.700;2022-08-07T04:06:55;3.00;;;2.70;;
17151;SDS011;8691;50.828;4.700;2022-08-07T04:09:21;3.25;;;2.70;;
17151;SDS011;8691;50.828;4.700;2022-08-07T04:11:48;3.00;;;2.70;;
17151;SDS011;8691;50.828;4.700;2022-08-07T04:14:15;3.58;;;2.80;;
17151;SDS011;8691;50.828;4.700;2022-08-07T04:16:42;3.12;;;2.83;;
17151;SDS011;8691;50.828;4.700;2022-08-07T04:19:09;4.40;;;3.00;;
17151;SDS011;8691;50.828;4.700;2022-08-07T04:21:36;3.10;;;2.67;;
17151;SDS011;8691;50.828;4.700;2022-08-07T04:24:04;3.20;;;2.90;;
17151;SDS011;8691;50.828;4.700;2022-08-07T04:26:30;3.03;;;2.73;;
17151;SDS011;8691;50.828;4.700;2022-08-07T04:28:57;2.80;;;2.60;;
17151;SDS011;8691;50.828;4.700;2022-08-07T04:31:24;3.35;;;2.60;;
17151;SDS011;8691;50.828;4.700;2022-08-07T04:33:51;3.00;;;2.80;;
17151;SDS011;8691;50.828;4.700;2022-08-07T04:36:18;3.65;;;3.00;;
17151;SDS011;8691;50.828;4.700;2022-08-07T04:38:44;3.47;;;2.67;;
17151;SDS011;8691;50.828;4.700;2022-08-07T04:41:11;2.80;;;2.60;;
17151;SDS011;8691;50.828;4.700;2022-08-07T04:43:38;2.90;;;2.70;;
17151;SDS011;8691;50.828;4.700;2022-08-07T04:46:09;3.10;;;2.80;;
17151;SDS011;8691;50.828;4.700;2022-08-07T04:49:04;3.33;;;2.67;;
17151;SDS011;8691;50.828;4.700;2022-08-07T04:51:52;3.07;;;2.80;;
17151;SDS011;8691;50.828;4.700;2022-08-07T04:57:06;3.27;;;2.73;;
17151;SDS011;8691;50.828;4.700;2022-08-07T05:04:48;3.30;;;2.95;;
17151;SDS011;8691;50.828;4.700;2022-08-07T05:12:25;3.50;;;2.80;;
17151;SDS011;8691;50.828;4.700;2022-08-07T05:14:50;3.30;;;3.00;;
17151;SDS011;8691;50.828;4.700;2022-08-07T05:17:17;4.03;;;3.00;;
17151;SDS011;8691;50.828;4.700;2022-08-07T05:19:46;3.73;;;2.83;;
17151;SDS011;8691;50.828;4.700;2022-08-07T05:22:10;3.23;;;3.00;;
17151;SDS011;8691;50.828;4.700;2022-08-07T05:24:37;2.97;;;2.60;;
17151;SDS011;8691;50.828;4.700;2022-08-07T05:27:04;3.73;;;2.77;;
17151;SDS011;8691;50.828;4.700;2022-08-07T05:29:31;3.30;;;3.00;;
17151;SDS011;8691;50.828;4.700;2022-08-07T05:31:58;3.70;;;2.95;;
17151;SDS011;8691;50.828;4.700;2022-08-07T05:34:25;3.92;;;3.53;;
17151;SDS011;8691;50.828;4.700;2022-08-07T05:36:52;4.00;;;3.53;;
17151;SDS011;8691;50.828;4.700;2022-08-07T05:39:20;4.10;;;3.70;;
17151;SDS011;8691;50.828;4.700;2022-08-07T05:41:46;3.85;;;3.55;;
17151;SDS011;8691;50.828;4.700;2022-08-07T05:44:13;4.40;;;3.80;;
17151;SDS011;8691;50.828;4.700;2022-08-07T05:46:39;5.32;;;4.00;;
17151;SDS011;8691;50.828;4.700;2022-08-07T05:49:07;4.40;;;3.80;;
17151;SDS011;8691;50.828;4.700;2022-08-07T05:51:33;3.95;;;3.30;;
17151;SDS011;8691;50.828;4.700;2022-08-07T05:54:00;4.05;;;3.33;;
17151;SDS011;8691;50.828;4.700;2022-08-07T05:56:27;3.92;;;3.45;;
17151;SDS011;8691;50.828;4.700;2022-08-07T05:58:54;4.10;;;3.70;;
17151;SDS011;8691;50.828;4.700;2022-08-07T06:01:20;5.37;;;3.57;;
17151;SDS011;8691;50.828;4.700;2022-08-07T06:03:48;4.72;;;4.32;;
17151;SDS011;8691;50.828;4.700;2022-08-07T06:06:14;4.80;;;4.30;;
17151;SDS011;8691;50.828;4.700;2022-08-07T06:08:41;6.40;;;4.33;;
17151;SDS011;8691;50.828;4.700;2022-08-07T06:11:08;4.65;;;4.20;;
17151;SDS011;8691;50.828;4.700;2022-08-07T06:13:35;5.33;;;4.20;;
17151;SDS011;8691;50.828;4.700;2022-08-07T06:16:02;6.13;;;4.30;;
17151;SDS011;8691;50.828;4.700;2022-08-07T06:18:29;5.70;;;4.40;;
17151;SDS011;8691;50.828;4.700;2022-08-07T06:20:55;4.60;;;4.20;;
17151;SDS011;8691;50.828;4.700;2022-08-07T06:23:22;5.33;;;4.23;;
17151;SDS011;8691;50.828;4.700;2022-08-07T06:25:50;4.50;;;4.10;;
17151;SDS011;8691;50.828;4.700;2022-08-07T06:28:18;5.27;;;4.23;;
17151;SDS011;8691;50.828;4.700;2022-08-07T06:30:44;4.93;;;4.17;;
17151;SDS011;8691;50.828;4.700;2022-08-07T06:33:11;7.10;;;4.03;;
17151;SDS011;8691;50.828;4.700;2022-08-07T06:35:38;4.80;;;4.10;;
17151;SDS011;8691;50.828;4.700;2022-08-07T06:38:05;5.53;;;4.25;;
17151;SDS011;8691;50.828;4.700;2022-08-07T06:40:36;5.70;;;4.17;;
17151;SDS011;8691;50.828;4.700;2022-08-07T06:43:01;5.03;;;4.18;;
17151;SDS011;8691;50.828;4.700;2022-08-07T06:45:28;4.75;;;3.85;;
17151;SDS011;8691;50.828;4.700;2022-08-07T06:47:54;4.07;;;3.67;;
17151;SDS011;8691;50.828;4.700;2022-08-07T06:50:22;4.50;;;3.90;;
17151;SDS011;8691;50.828;4.700;2022-08-07T06:52:52;4.68;;;4.05;;
17151;SDS011;8691;50.828;4.700;2022-08-07T06:55:19;4.30;;;3.70;;
17151;SDS011;8691;50.828;4.700;2022-08-07T06:57:44;4.10;;;3.70;;
17151;SDS011;8691;50.828;4.700;2022-08-07T07:00:11;3.88;;;3.40;;
17151;SDS011;8691;50.828;4.700;2022-08-07T07:02:38;3.90;;;3.50;;
17151;SDS011;8691;50.828;4.700;2022-08-07T07:05:05;4.50;;;3.55;;
17151;SDS011;8691;50.828;4.700;2022-08-07T07:07:33;3.73;;;3.43;;
17151;SDS011;8691;50.828;4.700;2022-08-07T07:10:00;3.83;;;3.40;;
17151;SDS011;8691;50.828;4.700;2022-08-07T07:15:22;3.77;;;3.47;;
17151;SDS011;8691;50.828;4.700;2022-08-07T07:23:13;3.93;;;3.27;;
17151;SDS011;8691;50.828;4.700;2022-08-07T07:25:40;4.72;;;3.28;;
17151;SDS011;8691;50.828;4.700;2022-08-07T07:28:22;3.73;;;3.00;;
17151;SDS011;8691;50.828;4.700;2022-08-07T07:33:17;3.33;;;2.97;;
17151;SDS011;8691;50.828;4.700;2022-08-07T07:35:45;5.60;;;2.85;;
17151;SDS011;8691;50.828;4.700;2022-08-07T07:38:10;3.07;;;2.80;;
17151;SDS011;8691;50.828;4.700;2022-08-07T07:40:37;3.22;;;2.92;;
17151;SDS011;8691;50.828;4.700;2022-08-07T07:43:04;4.00;;;2.50;;
17151;SDS011;8691;50.828;4.700;2022-08-07T07:45:31;3.73;;;2.70;;
17151;SDS011;8691;50.828;4.700;2022-08-07T07:47:58;3.90;;;2.50;;
17151;SDS011;8691;50.828;4.700;2022-08-07T07:50:25;3.30;;;2.50;;
17151;SDS011;8691;50.828;4.700;2022-08-07T07:52:52;3.08;;;2.60;;
17151;SDS011;8691;50.828;4.700;2022-08-07T07:55:21;3.40;;;2.40;;
17151;SDS011;8691;50.828;4.700;2022-08-07T07:57:49;4.10;;;2.30;;
17151;SDS011;8691;50.828;4.700;2022-08-07T08:00:16;3.10;;;2.60;;
17151;SDS011;8691;50.828;4.700;2022-08-07T08:02:42;3.25;;;2.50;;
17151;SDS011;8691;50.828;4.700;2022-08-07T08:05:09;3.10;;;2.57;;
17151;SDS011;8691;50.828;4.700;2022-08-07T08:07:39;2.60;;;2.30;;
17151;SDS011;8691;50.828;4.700;2022-08-07T08:10:09;4.28;;;2.70;;
17151;SDS011;8691;50.828;4.700;2022-08-07T08:12:33;2.92;;;2.33;;
17151;SDS011;8691;50.828;4.700;2022-08-07T08:15:00;2.83;;;2.43;;
17151;SDS011;8691;50.828;4.700;2022-08-07T08:17:27;2.50;;;2.10;;
17151;SDS011;8691;50.828;4.700;2022-08-07T08:19:55;2.50;;;2.20;;
17151;SDS011;8691;50.828;4.700;2022-08-07T08:22:21;2.28;;;1.80;;
17151;SDS011;8691;50.828;4.700;2022-08-07T08:24:54;3.03;;;1.80;;
17151;SDS011;8691;50.828;4.700;2022-08-07T08:27:39;4.20;;;2.70;;
17151;SDS011;8691;50.828;4.700;2022-08-07T08:30:06;3.83;;;2.40;;
17151;SDS011;8691;50.828;4.700;2022-08-07T08:32:33;2.97;;;2.28;;
17151;SDS011;8691;50.828;4.700;2022-08-07T08:34:59;2.45;;;1.90;;
17151;SDS011;8691;50.828;4.700;2022-08-07T08:37:27;2.63;;;2.00;;
17151;SDS011;8691;50.828;4.700;2022-08-07T08:39:53;3.65;;;2.17;;
17151;SDS011;8691;50.828;4.700;2022-08-07T08:42:22;3.93;;;2.20;;
17151;SDS011;8691;50.828;4.700;2022-08-07T08:45:14;3.50;;;1.70;;
17151;SDS011;8691;50.828;4.700;2022-08-07T08:47:25;1.85;;;1.65;;
17151;SDS011;8691;50.828;4.700;2022-08-07T08:52:37;2.00;;;1.70;;
17151;SDS011;8691;50.828;4.700;2022-08-07T08:55:06;2.78;;;1.90;;
17151;SDS011;8691;50.828;4.700;2022-08-07T08:57:39;2.03;;;1.60;;
17151;SDS011;8691;50.828;4.700;2022-08-07T09:00:10;2.83;;;1.73;;
17151;SDS011;8691;50.828;4.700;2022-08-07T09:05:17;1.95;;;1.60;;
17151;SDS011;8691;50.828;4.700;2022-08-07T09:07:56;2.70;;;1.53;;
17151;SDS011;8691;50.828;4.700;2022-08-07T09:10:41;2.65;;;2.17;;
17151;SDS011;8691;50.828;4.700;2022-08-07T09:13:16;2.12;;;1.70;;
17151;SDS011;8691;50.828;4.700;2022-08-07T09:15:43;2.67;;;1.38;;
17151;SDS011;8691;50.828;4.700;2022-08-07T09:18:13;1.73;;;1.50;;
17151;SDS011;8691;50.828;4.700;2022-08-07T09:20:44;2.30;;;1.37;;
17151;SDS011;8691;50.828;4.700;2022-08-07T09:28:26;2.03;;;1.30;;
17151;SDS011;8691;50.828;4.700;2022-08-07T09:36:27;2.03;;;1.40;;
17151;SDS011;8691;50.828;4.700;2022-08-07T09:38:58;2.00;;;1.40;;
17151;SDS011;8691;50.828;4.700;2022-08-07T09:41:22;2.17;;;1.40;;
17151;SDS011;8691;50.828;4.700;2022-08-07T09:46:56;2.10;;;0.93;;
17151;SDS011;8691;50.828;4.700;2022-08-07T09:52:36;1.77;;;1.20;;
17151;SDS011;8691;50.828;4.700;2022-08-07T09:55:07;2.90;;;1.20;;
17151;SDS011;8691;50.828;4.700;2022-08-07T10:00:23;2.47;;;1.30;;
17151;SDS011;8691;50.828;4.700;2022-08-07T10:11:41;1.73;;;1.10;;
17151;SDS011;8691;50.828;4.700;2022-08-07T10:31:04;3.95;;;1.20;;
17151;SDS011;8691;50.828;4.700;2022-08-07T10:33:42;2.80;;;1.27;;
17151;SDS011;8691;50.828;4.700;2022-08-07T10:39:09;2.47;;;1.35;;
17151;SDS011;8691;50.828;4.700;2022-08-07T10:41:54;2.77;;;1.20;;
17151;SDS011;8691;50.828;4.700;2022-08-07T10:44:42;1.42;;;1.00;;
17151;SDS011;8691;50.828;4.700;2022-08-07T10:47:30;1.30;;;0.77;;
17151;SDS011;8691;50.828;4.700;2022-08-07T10:49:57;2.47;;;1.10;;
17151;SDS011;8691;50.828;4.700;2022-08-07T11:00:13;2.27;;;1.40;;
17151;SDS011;8691;50.828;4.700;2022-08-07T11:02:49;2.40;;;1.52;;
17151;SDS011;8691;50.828;4.700;2022-08-07T11:05:35;3.08;;;1.60;;
17151;SDS011;8691;50.828;4.700;2022-08-07T11:08:11;3.07;;;1.40;;
17151;SDS011;8691;50.828;4.700;2022-08-07T11:10:54;1.52;;;1.20;;
17151;SDS011;8691;50.828;4.700;2022-08-07T11:13:30;2.57;;;1.80;;
17151;SDS011;8691;50.828;4.700;2022-08-07T11:16:10;2.77;;;1.90;;
17151;SDS011;8691;50.828;4.700;2022-08-07T11:18:45;3.22;;;1.85;;
17151;SDS011;8691;50.828;4.700;2022-08-07T11:21:15;2.33;;;1.60;;
17151;SDS011;8691;50.828;4.700;2022-08-07T11:23:56;2.23;;;1.93;;
17151;SDS011;8691;50.828;4.700;2022-08-07T11:26:27;2.40;;;1.67;;
17151;SDS011;8691;50.828;4.700;2022-08-07T11:29:05;1.93;;;1.50;;
17151;SDS011;8691;50.828;4.700;2022-08-07T11:31:33;2.97;;;1.65;;
17151;SDS011;8691;50.828;4.700;2022-08-07T11:34:51;2.67;;;1.80;;
17151;SDS011;8691;50.828;4.700;2022-08-07T11:37:12;2.12;;;1.92;;
17151;SDS011;8691;50.828;4.700;2022-08-07T11:45:19;3.10;;;2.20;;
17151;SDS011;8691;50.828;4.700;2022-08-07T11:53:56;3.03;;;1.77;;
17151;SDS011;8691;50.828;4.700;2022-08-07T11:58:57;2.10;;;1.60;;
17151;SDS011;8691;50.828;4.700;2022-08-07T12:06:44;2.60;;;1.60;;
17151;SDS011;8691;50.828;4.700;2022-08-07T12:09:16;2.40;;;1.70;;
17151;SDS011;8691;50.828;4.700;2022-08-07T12:11:47;3.10;;;1.70;;
17151;SDS011;8691;50.828;4.700;2022-08-07T12:14:19;3.83;;;1.60;;
17151;SDS011;8691;50.828;4.700;2022-08-07T12:16:53;3.05;;;2.17;;
17151;SDS011;8691;50.828;4.700;2022-08-07T12:22:31;2.07;;;1.60;;
17151;SDS011;8691;50.828;4.700;2022-08-07T12:27:55;2.63;;;1.70;;
17151;SDS011;8691;50.828;4.700;2022-08-07T12:30:23;2.55;;;1.58;;
17151;SDS011;8691;50.828;4.700;2022-08-07T12:33:02;5.25;;;1.60;;
17151;SDS011;8691;50.828;4.700;2022-08-07T12:35:27;2.53;;;2.00;;
17151;SDS011;8691;50.828;4.700;2022-08-07T12:37:54;2.30;;;1.90;;
17151;SDS011;8691;50.828;4.700;2022-08-07T12:40:22;2.10;;;1.70;;
17151;SDS011;8691;50.828;4.700;2022-08-07T12:42:52;2.90;;;1.90;;
17151;SDS011;8691;50.828;4.700;2022-08-07T12:45:25;2.92;;;1.83;;
17151;SDS011;8691;50.828;4.700;2022-08-07T12:50:36;2.80;;;1.80;;
17151;SDS011;8691;50.828;4.700;2022-08-07T12:53:05;2.83;;;1.70;;
17151;SDS011;8691;50.828;4.700;2022-08-07T12:58:02;2.20;;;1.48;;
17151;SDS011;8691;50.828;4.700;2022-08-07T13:06:06;3.57;;;1.80;;
17151;SDS011;8691;50.828;4.700;2022-08-07T13:13:39;1.90;;;1.40;;
17151;SDS011;8691;50.828;4.700;2022-08-07T13:16:14;2.70;;;1.80;;
17151;SDS011;8691;50.828;4.700;2022-08-07T13:21:51;2.30;;;1.50;;
17151;SDS011;8691;50.828;4.700;2022-08-07T13:24:24;2.53;;;1.60;;
17151;SDS011;8691;50.828;4.700;2022-08-07T13:29:35;1.80;;;1.60;;
17151;SDS011;8691;50.828;4.700;2022-08-07T13:32:02;3.55;;;1.58;;
17151;SDS011;8691;50.828;4.700;2022-08-07T13:34:36;2.57;;;1.60;;
17151;SDS011;8691;50.828;4.700;2022-08-07T13:37:03;3.33;;;1.60;;
17151;SDS011;8691;50.828;4.700;2022-08-07T13:39:32;2.90;;;1.60;;
17151;SDS011;8691;50.828;4.700;2022-08-07T13:42:01;2.40;;;1.60;;
17151;SDS011;8691;50.828;4.700;2022-08-07T13:44:30;4.00;;;1.80;;
17151;SDS011;8691;50.828;4.700;2022-08-07T13:46:57;2.37;;;1.90;;
17151;SDS011;8691;50.828;4.700;2022-08-07T13:49:23;2.40;;;1.70;;
17151;SDS011;8691;50.828;4.700;2022-08-07T13:51:50;2.20;;;1.90;;
17151;SDS011;8691;50.828;4.700;2022-08-07T13:54:16;2.47;;;1.70;;
17151;SDS011;8691;50.828;4.700;2022-08-07T13:56:43;2.70;;;2.30;;
17151;SDS011;8691;50.828;4.700;2022-08-07T13:59:11;18.17;;;2.38;;
17151;SDS011;8691;50.828;4.700;2022-08-07T14:01:50;3.10;;;2.00;;
17151;SDS011;8691;50.828;4.700;2022-08-07T14:04:11;2.43;;;1.67;;
17151;SDS011;8691;50.828;4.700;2022-08-07T14:06:41;2.15;;;1.80;;
17151;SDS011;8691;50.828;4.700;2022-08-07T14:09:08;2.40;;;1.83;;
17151;SDS011;8691;50.828;4.700;2022-08-07T14:11:35;2.20;;;1.80;;
17151;SDS011;8691;50.828;4.700;2022-08-07T14:14:03;2.50;;;1.80;;
17151;SDS011;8691;50.828;4.700;2022-08-07T14:16:31;3.40;;;2.30;;
17151;SDS011;8691;50.828;4.700;2022-08-07T14:18:57;1.80;;;1.70;;
17151;SDS011;8691;50.828;4.700;2022-08-07T14:21:31;1.97;;;1.70;;
17151;SDS011;8691;50.828;4.700;2022-08-07T14:24:02;2.08;;;1.80;;
17151;SDS011;8691;50.828;4.700;2022-08-07T14:26:29;2.53;;;1.70;;
17151;SDS011;8691;50.828;4.700;2022-08-07T14:28:55;2.03;;;1.80;;
17151;SDS011;8691;50.828;4.700;2022-08-07T14:31:22;2.13;;;1.80;;
17151;SDS011;8691;50.828;4.700;2022-08-07T14:33:48;2.80;;;1.77;;
17151;SDS011;8691;50.828;4.700;2022-08-07T14:36:15;2.22;;;1.70;;
17151;SDS011;8691;50.828;4.700;2022-08-07T14:38:42;2.20;;;1.67;;
17151;SDS011;8691;50.828;4.700;2022-08-07T14:41:10;3.00;;;1.70;;
17151;SDS011;8691;50.828;4.700;2022-08-07T14:43:41;2.07;;;1.60;;
17151;SDS011;8691;50.828;4.700;2022-08-07T14:46:07;1.70;;;1.60;;
17151;SDS011;8691;50.828;4.700;2022-08-07T14:48:34;2.03;;;1.50;;
17151;SDS011;8691;50.828;4.700;2022-08-07T14:51:02;2.72;;;1.70;;
17151;SDS011;8691;50.828;4.700;2022-08-07T14:53:30;2.15;;;1.80;;
17151;SDS011;8691;50.828;4.700;2022-08-07T14:55:55;3.83;;;1.60;;
17151;SDS011;8691;50.828;4.700;2022-08-07T14:58:26;2.17;;;1.48;;
17151;SDS011;8691;50.828;4.700;2022-08-07T15:00:51;2.20;;;1.63;;
17151;SDS011;8691;50.828;4.700;2022-08-07T15:03:22;1.98;;;1.60;;
17151;SDS011;8691;50.828;4.700;2022-08-07T15:05:49;1.70;;;1.47;;
17151;SDS011;8691;50.828;4.700;2022-08-07T15:08:21;3.35;;;1.65;;
17151;SDS011;8691;50.828;4.700;2022-08-07T15:10:43;2.33;;;1.70;;
17151;SDS011;8691;50.828;4.700;2022-08-07T15:13:20;3.37;;;1.50;;
17151;SDS011;8691;50.828;4.700;2022-08-07T15:15:40;1.62;;;1.30;;
17151;SDS011;8691;50.828;4.700;2022-08-07T15:18:09;2.97;;;1.40;;
17151;SDS011;8691;50.828;4.700;2022-08-07T15:20:31;2.30;;;1.50;;
17151;SDS011;8691;50.828;4.700;2022-08-07T15:22:59;1.75;;;1.62;;
17151;SDS011;8691;50.828;4.700;2022-08-07T15:25:29;2.53;;;1.80;;
17151;SDS011;8691;50.828;4.700;2022-08-07T15:27:56;1.95;;;1.67;;
17151;SDS011;8691;50.828;4.700;2022-08-07T15:30:22;1.70;;;1.60;;
17151;SDS011;8691;50.828;4.700;2022-08-07T15:32:49;1.87;;;1.30;;
17151;SDS011;8691;50.828;4.700;2022-08-07T15:35:17;2.70;;;1.80;;
17151;SDS011;8691;50.828;4.700;2022-08-07T15:37:54;2.05;;;1.60;;
17151;SDS011;8691;50.828;4.700;2022-08-07T15:40:22;2.10;;;1.70;;
17151;SDS011;8691;50.828;4.700;2022-08-07T15:42:51;2.22;;;1.45;;
17151;SDS011;8691;50.828;4.700;2022-08-07T15:47:49;1.83;;;1.40;;
17151;SDS011;8691;50.828;4.700;2022-08-07T15:50:15;2.47;;;1.38;;
17151;SDS011;8691;50.828;4.700;2022-08-07T15:52:43;4.07;;;1.67;;
17151;SDS011;8691;50.828;4.700;2022-08-07T15:55:10;2.43;;;1.57;;
17151;SDS011;8691;50.828;4.700;2022-08-07T15:57:36;2.08;;;1.38;;
17151;SDS011;8691;50.828;4.700;2022-08-07T16:00:03;2.50;;;1.50;;
17151;SDS011;8691;50.828;4.700;2022-08-07T16:02:30;2.57;;;1.50;;
17151;SDS011;8691;50.828;4.700;2022-08-07T16:04:58;2.80;;;1.42;;
17151;SDS011;8691;50.828;4.700;2022-08-07T16:07:30;3.12;;;1.60;;
17151;SDS011;8691;50.828;4.700;2022-08-07T16:33:51;2.43;;;1.50;;
17151;SDS011;8691;50.828;4.700;2022-08-07T16:39:22;2.45;;;1.30;;
17151;SDS011;8691;50.828;4.700;2022-08-07T16:44:23;2.92;;;1.55;;
17151;SDS011;8691;50.828;4.700;2022-08-07T16:47:15;2.80;;;1.35;;
17151;SDS011;8691;50.828;4.700;2022-08-07T16:52:49;2.30;;;1.30;;
17151;SDS011;8691;50.828;4.700;2022-08-07T16:55:31;2.22;;;1.40;;
17151;SDS011;8691;50.828;4.700;2022-08-07T16:58:02;2.80;;;1.40;;
17151;SDS011;8691;50.828;4.700;2022-08-07T17:00:38;1.73;;;1.20;;
17151;SDS011;8691;50.828;4.700;2022-08-07T17:08:35;1.95;;;1.40;;
17151;SDS011;8691;50.828;4.700;2022-08-07T17:11:04;1.63;;;1.30;;
17151;SDS011;8691;50.828;4.700;2022-08-07T17:13:37;1.80;;;1.30;;
17151;SDS011;8691;50.828;4.700;2022-08-07T17:16:20;1.70;;;1.30;;
17151;SDS011;8691;50.828;4.700;2022-08-07T17:19:00;2.67;;;1.17;;
17151;SDS011;8691;50.828;4.700;2022-08-07T17:21:42;1.75;;;1.20;;
17151;SDS011;8691;50.828;4.700;2022-08-07T17:26:57;1.60;;;1.20;;
17151;SDS011;8691;50.828;4.700;2022-08-07T17:29:41;1.50;;;1.10;;
17151;SDS011;8691;50.828;4.700;2022-08-07T17:34:47;1.93;;;1.30;;
17151;SDS011;8691;50.828;4.700;2022-08-07T17:40:02;1.45;;;0.98;;
17151;SDS011;8691;50.828;4.700;2022-08-07T17:45:08;2.70;;;1.20;;
17151;SDS011;8691;50.828;4.700;2022-08-07T17:50:12;1.97;;;1.00;;
17151;SDS011;8691;50.828;4.700;2022-08-07T17:52:42;1.50;;;1.05;;
17151;SDS011;8691;50.828;4.700;2022-08-07T17:55:07;1.10;;;1.00;;
17151;SDS011;8691;50.828;4.700;2022-08-07T17:57:46;1.08;;;0.85;;
17151;SDS011;8691;50.828;4.700;2022-08-07T18:00:10;2.33;;;1.00;;
17151;SDS011;8691;50.828;4.700;2022-08-07T18:08:12;1.70;;;1.40;;
17151;SDS011;8691;50.828;4.700;2022-08-07T18:10:38;1.83;;;1.13;;
17151;SDS011;8691;50.828;4.700;2022-08-07T18:13:32;1.13;;;0.90;;
17151;SDS011;8691;50.828;4.700;2022-08-07T18:18:46;1.77;;;1.00;;
17151;SDS011;8691;50.828;4.700;2022-08-07T18:21:15;1.10;;;1.00;;
17151;SDS011;8691;50.828;4.700;2022-08-07T18:29:06;2.03;;;0.93;;
17151;SDS011;8691;50.828;4.700;2022-08-07T18:31:43;1.20;;;1.10;;
17151;SDS011;8691;50.828;4.700;2022-08-07T18:36:49;1.70;;;1.10;;